Time;durP1;ratioP1;P1;durP2;ratioP2;P2;SDS_P1;SDS_P2;PMS_P1;PMS_P2;Temp;Humidity;BMP_temperature;BMP_pressure;BME280_temperature;BME280_humidity;BME280_pressure;Samples;Min_cycle;Max_cycle;Signal;HPM_P1;HPM_P2
2022/12/12 00:00:58;;;;;;;10.38;6.13;;;15.50;49.20;;;;;;6184085;23;45229;-72
2022/12/12 00:03:25;;;;;;;8.10;5.50;;;15.60;49.20;;;;;;6183006;23;45362;-72
2022/12/12 00:05:53;;;;;;;11.10;6.90;;;15.60;49.20;;;;;;6182872;23;46502;-72
2022/12/12 00:08:20;;;;;;;9.57;6.07;;;15.60;49.10;;;;;;6183882;23;45213;-72
2022/12/12 00:10:47;;;;;;;11.70;6.57;;;15.60;49.20;;;;;;6183070;23;45321;-72
2022/12/12 00:13:15;;;;;;;10.63;6.38;;;15.60;49.00;;;;;;6184184;23;45161;-72
2022/12/12 00:15:42;;;;;;;11.48;6.18;;;15.60;49.00;;;;;;6182411;23;45434;-72
2022/12/12 00:18:09;;;;;;;10.02;6.03;;;15.60;49.00;;;;;;6183701;23;45850;-72
2022/12/12 00:20:36;;;;;;;9.82;6.30;;;15.60;49.00;;;;;;6183881;23;45366;-73
2022/12/12 00:23:02;;;;;;;11.00;6.35;;;15.60;48.90;;;;;;6182319;23;45416;-72
2022/12/12 00:25:29;;;;;;;11.18;6.38;;;15.60;49.00;;;;;;6182826;23;46372;-72
2022/12/12 00:27:56;;;;;;;9.23;5.78;;;15.60;48.50;;;;;;6183321;23;45320;-72
2022/12/12 00:30:24;;;;;;;10.32;6.47;;;15.50;48.00;;;;;;6183870;23;45354;-72
2022/12/12 00:32:51;;;;;;;11.13;6.97;;;15.50;47.70;;;;;;6183691;23;45374;-72
2022/12/12 00:35:18;;;;;;;11.23;6.63;;;15.50;47.10;;;;;;6182827;23;46280;-72
2022/12/12 00:37:45;;;;;;;9.63;6.00;;;15.50;46.80;;;;;;6183544;23;45230;-72
2022/12/12 00:40:13;;;;;;;11.90;6.95;;;15.50;46.60;;;;;;6183100;23;45301;-72
2022/12/12 00:42:40;;;;;;;9.50;6.22;;;15.50;46.40;;;;;;6184183;23;45473;-72
2022/12/12 00:45:08;;;;;;;10.50;6.60;;;15.50;46.20;;;;;;6182227;23;46847;-73
2022/12/12 00:47:36;;;;;;;12.27;6.57;;;15.50;46.50;;;;;;6183810;23;45302;-72
2022/12/12 00:50:03;;;;;;;11.68;6.35;;;15.50;46.80;;;;;;6183359;23;45460;-72
2022/12/12 00:52:29;;;;;;;9.77;5.88;;;15.50;47.00;;;;;;6183987;23;45512;-73
2022/12/12 00:54:57;;;;;;;9.95;6.15;;;15.50;47.20;;;;;;6182876;23;46565;-72
2022/12/12 00:57:24;;;;;;;8.35;5.90;;;15.50;47.40;;;;;;6182554;23;45276;-72
2022/12/12 00:59:51;;;;;;;10.68;6.43;;;15.50;47.50;;;;;;6182263;23;45245;-72
2022/12/12 01:02:19;;;;;;;9.57;5.72;;;15.50;47.50;;;;;;6183225;23;45337;-72
2022/12/12 01:04:47;;;;;;;8.68;5.63;;;15.50;47.60;;;;;;6183773;23;46622;-73
2022/12/12 01:07:14;;;;;;;7.90;5.38;;;15.50;47.50;;;;;;6181702;23;45218;-72
2022/12/12 01:09:41;;;;;;;10.00;5.45;;;15.60;47.70;;;;;;6183945;23;45345;-72
2022/12/12 01:12:08;;;;;;;9.35;6.05;;;15.60;47.60;;;;;;6183612;23;45331;-72
2022/12/12 01:14:35;;;;;;;12.20;6.10;;;15.60;47.70;;;;;;6183046;23;48621;-72
2022/12/12 01:17:02;;;;;;;10.38;5.70;;;15.60;47.70;;;;;;6183024;23;45239;-72
2022/12/12 01:19:28;;;;;;;9.15;5.57;;;15.60;47.70;;;;;;6183046;23;45388;-72
2022/12/12 01:21:57;;;;;;;9.30;5.80;;;15.60;47.70;;;;;;6181899;23;45371;-72
2022/12/12 01:24:24;;;;;;;9.40;5.60;;;15.50;47.60;;;;;;6183688;23;46529;-72
2022/12/12 01:26:50;;;;;;;8.10;5.00;;;15.60;47.70;;;;;;6182280;23;45373;-72
2022/12/12 01:29:17;;;;;;;8.43;5.30;;;15.50;47.70;;;;;;6184000;23;45219;-72
2022/12/12 01:31:44;;;;;;;10.15;5.85;;;15.50;47.70;;;;;;6182900;23;45259;-72
2022/12/12 01:34:11;;;;;;;8.50;5.55;;;15.60;47.80;;;;;;6183567;23;48391;-72
2022/12/12 01:36:38;;;;;;;8.70;5.38;;;15.60;47.80;;;;;;6182018;22;45306;-73
2022/12/12 01:39:06;;;;;;;10.15;5.90;;;15.50;47.80;;;;;;6183761;23;45372;-72
2022/12/12 01:41:33;;;;;;;9.35;5.88;;;15.60;48.00;;;;;;6183586;23;45356;-72
2022/12/12 01:44:01;;;;;;;10.32;5.57;;;15.50;49.00;;;;;;6182732;23;46678;-72
2022/12/12 01:46:35;;;;;;;8.05;4.75;;;15.60;48.00;;;;;;6182047;23;45361;-72
2022/12/12 01:49:08;;;;;;;8.60;5.45;;;15.50;47.80;;;;;;6183372;23;45407;-72
2022/12/12 01:51:36;;;;;;;10.55;5.88;;;15.60;49.20;;;;;;6183808;23;45370;-71
2022/12/12 01:54:10;;;;;;;8.63;5.28;;;15.60;48.00;;;;;;6185567;23;48202;-72
2022/12/12 01:56:38;;;;;;;8.73;5.20;;;15.60;48.00;;;;;;6182661;23;45305;-72
2022/12/12 01:59:08;;;;;;;11.27;4.72;;;15.60;48.10;;;;;;6182614;23;45322;-72
2022/12/12 02:01:37;;;;;;;8.98;5.10;;;15.60;47.90;;;;;;6183245;23;45425;-73
2022/12/12 02:04:05;;;;;;;8.82;5.30;;;15.60;47.80;;;;;;6183340;23;46251;-73
2022/12/12 02:06:32;;;;;;;7.85;5.45;;;15.60;47.90;;;;;;6182130;23;45288;-72
2022/12/12 02:09:02;;;;;;;8.88;5.47;;;15.60;47.90;;;;;;6183477;23;45217;-72
2022/12/12 02:11:32;;;;;;;8.82;4.97;;;15.60;48.00;;;;;;6183269;23;45297;-72
2022/12/12 02:13:59;;;;;;;9.38;5.60;;;15.60;47.90;;;;;;6183113;23;46962;-73
2022/12/12 02:16:43;;;;;;;7.32;4.07;;;15.60;48.00;;;;;;6182567;23;45222;-72
2022/12/12 02:19:43;;;;;;;8.93;5.18;;;15.60;48.00;;;;;;6182977;23;45338;-72
2022/12/12 02:22:24;;;;;;;8.45;5.32;;;15.60;47.90;;;;;;6181687;23;45434;-72
2022/12/12 02:25:09;;;;;;;9.43;5.40;;;15.60;47.90;;;;;;6183019;23;45369;-72
2022/12/12 02:28:03;;;;;;;11.05;5.28;;;15.60;48.00;;;;;;6182651;23;45334;-73
2022/12/12 02:30:40;;;;;;;10.60;5.30;;;15.50;47.80;;;;;;6182844;23;45273;-72
2022/12/12 02:33:20;;;;;;;9.85;5.18;;;15.50;47.90;;;;;;6183671;23;45253;-72
2022/12/12 02:35:59;;;;;;;7.88;4.90;;;15.60;47.80;;;;;;6181613;23;46452;-72
2022/12/12 02:38:31;;;;;;;7.75;4.53;;;15.60;47.80;;;;;;6182993;23;45224;-73
2022/12/12 02:41:07;;;;;;;6.60;4.32;;;15.60;47.70;;;;;;6183253;23;45260;-72
2022/12/12 02:43:41;;;;;;;9.50;5.50;;;15.60;49.00;;;;;;6183497;23;45458;-72
2022/12/12 02:46:14;;;;;;;9.30;5.00;;;15.60;47.80;;;;;;6181945;23;45243;-72
2022/12/12 02:48:48;;;;;;;7.38;5.07;;;15.60;47.70;;;;;;6183314;23;45202;-73
2022/12/12 02:51:17;;;;;;;8.57;5.07;;;15.60;47.80;;;;;;6183317;23;45291;-72
2022/12/12 02:53:44;;;;;;;8.27;5.30;;;15.60;47.60;;;;;;6182879;23;45385;-72
2022/12/12 02:56:44;;;;;;;9.05;5.22;;;15.60;47.50;;;;;;6182515;23;47501;-72
2022/12/12 02:59:16;;;;;;;7.97;4.53;;;15.60;47.40;;;;;;6181359;23;45391;-72
2022/12/12 03:01:53;;;;;;;7.25;4.65;;;15.60;47.40;;;;;;6183349;23;45395;-72
2022/12/12 03:10:16;;;;;;;8.63;4.93;;;15.60;47.50;;;;;;6182485;23;45479;-72
2022/12/12 03:12:57;;;;;;;7.85;4.75;;;15.60;47.40;;;;;;6183368;23;45265;-72
2022/12/12 03:15:33;;;;;;;7.32;4.85;;;15.50;47.40;;;;;;6182170;23;45511;-72
2022/12/12 03:18:13;;;;;;;7.15;4.57;;;15.50;47.50;;;;;;6183101;23;46603;-72
2022/12/12 03:20:49;;;;;;;7.90;4.97;;;15.50;47.40;;;;;;6182212;23;46343;-72
2022/12/12 03:23:21;;;;;;;8.65;5.22;;;15.50;47.50;;;;;;6181236;23;45402;-72
2022/12/12 03:25:51;;;;;;;8.38;5.10;;;15.50;47.40;;;;;;6182261;23;45332;-72
2022/12/12 03:28:23;;;;;;;7.68;4.85;;;15.50;47.40;;;;;;6182023;23;45469;-72
2022/12/12 03:30:55;;;;;;;7.13;4.65;;;15.60;47.50;;;;;;6183049;23;45324;-72
2022/12/12 03:33:26;;;;;;;8.68;4.82;;;15.60;47.50;;;;;;6182621;23;45464;-72
2022/12/12 03:35:59;;;;;;;7.95;4.50;;;15.60;47.60;;;;;;6182466;23;45510;-72
2022/12/12 03:38:30;;;;;;;6.40;4.38;;;15.60;47.60;;;;;;6181760;23;46448;-72
2022/12/12 03:41:00;;;;;;;8.00;4.75;;;15.60;47.70;;;;;;6182814;23;45350;-72
2022/12/12 03:43:30;;;;;;;7.68;5.20;;;15.60;47.60;;;;;;6182918;23;45320;-72
2022/12/12 03:46:03;;;;;;;7.45;4.45;;;15.60;47.50;;;;;;6183903;23;45236;-72
2022/12/12 03:48:32;;;;;;;7.15;4.63;;;15.60;47.60;;;;;;6182836;23;46276;-72
2022/12/12 03:51:04;;;;;;;7.72;4.63;;;15.50;47.40;;;;;;6181618;23;45265;-71
2022/12/12 03:53:38;;;;;;;7.00;4.75;;;15.50;47.40;;;;;;6183393;23;45326;-72
2022/12/12 03:56:10;;;;;;;8.10;4.80;;;15.50;47.40;;;;;;6181533;23;45234;-72
2022/12/12 03:58:43;;;;;;;7.00;4.57;;;15.60;47.50;;;;;;6181493;23;46650;-71
2022/12/12 04:01:13;;;;;;;6.70;4.78;;;15.60;47.50;;;;;;6180731;23;45391;-72
2022/12/12 04:03:49;;;;;;;8.02;4.57;;;15.50;47.40;;;;;;6182781;23;45361;-72
2022/12/12 04:06:28;;;;;;;7.07;4.38;;;15.60;47.60;;;;;;6182208;23;45614;-71
2022/12/12 04:14:55;;;;;;;7.28;4.88;;;15.50;47.50;;;;;;6182312;23;45341;-72
2022/12/12 04:17:30;;;;;;;9.45;5.20;;;15.50;46.90;;;;;;6181911;23;45164;-72
2022/12/12 04:23:15;;;;;;;7.32;5.03;;;15.50;45.70;;;;;;6181989;23;45293;-72
2022/12/12 04:28:40;;;;;;;8.48;5.20;;;15.50;45.10;;;;;;6183095;23;45334;-71
2022/12/12 04:31:09;;;;;;;10.52;4.93;;;15.50;44.90;;;;;;6181368;23;46428;-72
2022/12/12 04:33:42;;;;;;;7.57;5.00;;;15.50;44.80;;;;;;6182380;23;45719;-72
2022/12/12 04:36:12;;;;;;;7.63;4.78;;;15.50;44.30;;;;;;6181445;23;45277;-72
2022/12/12 04:38:43;;;;;;;9.40;5.43;;;15.40;43.90;;;;;;6182676;23;45400;-72
2022/12/12 04:41:11;;;;;;;8.80;5.45;;;15.40;43.70;;;;;;6183100;23;46340;-72
2022/12/12 04:43:39;;;;;;;10.13;5.93;;;15.40;43.80;;;;;;6183212;23;45379;-72
2022/12/12 04:46:09;;;;;;;8.15;5.07;;;15.40;43.70;;;;;;6182439;23;45233;-72
2022/12/12 04:48:42;;;;;;;6.80;5.03;;;15.40;43.60;;;;;;6183632;23;45306;-71
2022/12/12 04:51:12;;;;;;;7.15;4.65;;;15.40;43.50;;;;;;6183599;23;46585;-72
2022/12/12 04:53:45;;;;;;;9.60;4.88;;;15.40;43.40;;;;;;6183448;23;45252;-73
2022/12/12 04:56:17;;;;;;;8.60;5.20;;;15.40;43.20;;;;;;6183160;23;45204;-72
2022/12/12 04:58:43;;;;;;;8.00;4.70;;;15.30;43.00;;;;;;6184361;23;45240;-72
2022/12/12 05:01:16;;;;;;;10.07;5.15;;;15.40;43.20;;;;;;6181670;23;47464;-72
2022/12/12 05:03:49;;;;;;;9.25;5.60;;;15.40;43.00;;;;;;6183987;23;46017;-72
2022/12/12 05:06:19;;;;;;;9.02;5.10;;;15.30;42.90;;;;;;6182788;23;45417;-72
2022/12/12 05:08:49;;;;;;;8.95;5.22;;;15.40;43.00;;;;;;6183910;23;45352;-72
2022/12/12 05:11:20;;;;;;;9.77;5.32;;;15.40;42.70;;;;;;6182711;23;48183;-72
2022/12/12 05:13:46;;;;;;;8.95;5.07;;;15.40;42.90;;;;;;6183214;23;45241;-72
2022/12/12 05:16:19;;;;;;;8.50;5.22;;;15.40;42.90;;;;;;6183051;23;45306;-72
2022/12/12 05:18:46;;;;;;;8.05;5.13;;;15.30;42.80;;;;;;6183870;23;45267;-71
2022/12/12 05:21:13;;;;;;;7.47;4.72;;;15.40;42.90;;;;;;6181879;23;45714;-72
2022/12/12 05:23:40;;;;;;;8.55;4.60;;;15.30;42.80;;;;;;6183046;23;45279;-72
2022/12/12 05:26:10;;;;;;;8.30;4.30;;;15.40;42.60;;;;;;6182644;23;45216;-72
2022/12/12 05:28:37;;;;;;;7.25;4.35;;;15.30;42.20;;;;;;6183238;23;45319;-72
2022/12/12 05:31:04;;;;;;;9.43;5.15;;;15.40;42.30;;;;;;6182566;23;45480;-72
2022/12/12 05:33:31;;;;;;;9.18;5.13;;;15.30;42.10;;;;;;6183389;23;45413;-72
2022/12/12 05:35:58;;;;;;;7.10;4.57;;;15.30;41.80;;;;;;6182161;23;45324;-72
2022/12/12 05:38:24;;;;;;;7.30;4.60;;;15.30;41.90;;;;;;6185596;22;45394;-72
2022/12/12 05:40:52;;;;;;;7.05;4.80;;;15.40;42.20;;;;;;6182228;23;48020;-72
2022/12/12 05:43:20;;;;;;;8.52;5.03;;;15.30;41.90;;;;;;6183609;23;45405;-72
2022/12/12 05:45:47;;;;;;;8.50;5.15;;;15.30;41.70;;;;;;6181110;23;45241;-72
2022/12/12 05:48:14;;;;;;;8.80;4.93;;;15.30;41.80;;;;;;6183535;23;45229;-72
2022/12/12 05:50:41;;;;;;;7.20;4.63;;;15.30;41.70;;;;;;6182533;23;46289;-72
2022/12/12 05:53:08;;;;;;;7.07;4.15;;;15.30;41.60;;;;;;6182642;23;45216;-72
2022/12/12 05:55:35;;;;;;;6.95;4.28;;;15.30;43.10;;;;;;6183346;23;45431;-72
2022/12/12 05:58:02;;;;;;;6.80;4.70;;;15.30;44.60;;;;;;6181396;23;45279;-72
2022/12/12 06:00:31;;;;;;;8.63;4.88;;;15.30;43.80;;;;;;6180280;23;45223;-72
2022/12/12 06:02:57;;;;;;;6.72;4.45;;;15.40;43.30;;;;;;6182654;23;45253;-72
2022/12/12 06:05:24;;;;;;;7.47;4.78;;;15.40;42.90;;;;;;6182908;23;45326;-72
2022/12/12 06:07:51;;;;;;;8.35;4.97;;;15.30;42.60;;;;;;6182882;23;45312;-71
2022/12/12 06:10:20;;;;;;;7.63;4.43;;;15.40;42.70;;;;;;6182569;23;47768;-71
2022/12/12 06:12:47;;;;;;;7.55;4.43;;;15.40;42.50;;;;;;6181187;23;45221;-71
2022/12/12 06:15:14;;;;;;;8.00;4.70;;;15.40;42.30;;;;;;6181379;23;45293;-71
2022/12/12 06:17:42;;;;;;;7.50;4.97;;;15.30;41.90;;;;;;6182340;23;45229;-71
2022/12/12 06:20:09;;;;;;;7.90;5.03;;;15.30;42.00;;;;;;6182564;23;46544;-72
2022/12/12 06:22:36;;;;;;;8.20;5.40;;;15.30;41.90;;;;;;6181627;23;45244;-72
2022/12/12 06:25:03;;;;;;;9.40;4.95;;;15.30;41.70;;;;;;6179872;23;45183;-74
2022/12/12 06:27:31;;;;;;;8.05;5.00;;;15.30;41.80;;;;;;6177292;23;45289;-73
2022/12/12 06:29:57;;;;;;;7.50;5.25;;;15.30;41.70;;;;;;6181108;23;48293;-73
2022/12/12 06:32:24;;;;;;;7.53;4.83;;;15.30;41.80;;;;;;6181311;23;45449;-72
2022/12/12 06:34:52;;;;;;;7.07;4.70;;;15.20;41.60;;;;;;6181751;23;45431;-73
2022/12/12 06:37:20;;;;;;;7.70;4.70;;;15.20;41.50;;;;;;6182437;22;45424;-73
2022/12/12 06:39:46;;;;;;;6.63;4.18;;;15.20;41.50;;;;;;6182201;23;47165;-73
2022/12/12 06:42:13;;;;;;;8.07;5.15;;;15.20;41.40;;;;;;6181320;23;45302;-72
2022/12/12 06:44:40;;;;;;;6.53;4.78;;;15.20;41.40;;;;;;6181640;23;45280;-73
2022/12/12 06:47:07;;;;;;;7.07;4.40;;;15.20;41.10;;;;;;6183006;23;45157;-72
2022/12/12 06:49:34;;;;;;;7.68;4.80;;;15.20;41.10;;;;;;6182777;23;46561;-71
2022/12/12 06:52:02;;;;;;;6.53;4.45;;;15.30;40.90;;;;;;6181260;23;45662;-72
2022/12/12 06:54:29;;;;;;;6.43;4.18;;;15.30;41.80;;;;;;6183409;23;45276;-73
2022/12/12 06:56:56;;;;;;;8.07;5.15;;;15.30;40.90;;;;;;6182311;23;45253;-73
2022/12/12 06:59:23;;;;;;;7.97;4.32;;;15.30;41.10;;;;;;6183270;23;46598;-73
2022/12/12 07:01:49;;;;;;;7.68;4.53;;;15.30;40.90;;;;;;6183214;23;45355;-73
2022/12/12 07:04:16;;;;;;;6.72;4.07;;;15.30;40.90;;;;;;6182178;23;45477;-72
2022/12/12 07:06:43;;;;;;;7.13;4.13;;;15.30;40.70;;;;;;6181192;23;45268;-72
2022/12/12 07:09:11;;;;;;;6.18;3.70;;;15.30;40.60;;;;;;6181155;23;45728;-73
2022/12/12 07:11:39;;;;;;;12.68;4.68;;;15.30;40.50;;;;;;6181858;23;45637;-72
2022/12/12 07:14:06;;;;;;;7.40;4.13;;;15.30;41.70;;;;;;6182638;23;45284;-73
2022/12/12 07:16:33;;;;;;;6.00;3.72;;;15.30;40.40;;;;;;6181606;23;45522;-73
2022/12/12 07:19:00;;;;;;;8.63;4.15;;;15.30;40.30;;;;;;6182382;23;46319;-73
2022/12/12 07:21:26;;;;;;;7.47;4.45;;;15.20;40.30;;;;;;6182097;23;45212;-73
2022/12/12 07:23:53;;;;;;;6.85;4.10;;;15.20;40.30;;;;;;6183397;23;45391;-73
2022/12/12 07:26:23;;;;;;;7.60;4.00;;;15.20;40.10;;;;;;6182483;23;45277;-73
2022/12/12 07:28:51;;;;;;;8.05;4.32;;;15.20;40.90;;;;;;6183265;23;47110;-73
2022/12/12 07:31:20;;;;;;;6.32;3.95;;;15.20;43.30;;;;;;6183247;23;45247;-72
2022/12/12 07:33:47;;;;;;;7.15;4.32;;;15.20;42.50;;;;;;6185141;23;45284;-72
2022/12/12 07:36:15;;;;;;;7.65;4.25;;;15.20;41.90;;;;;;6182397;23;45388;-72
2022/12/12 07:38:43;;;;;;;6.75;3.92;;;15.10;41.10;;;;;;6182235;22;47479;-72
2022/12/12 07:41:11;;;;;;;7.05;4.00;;;15.20;40.90;;;;;;6182959;23;45301;-72
2022/12/12 07:43:41;;;;;;;11.45;5.22;;;15.20;40.50;;;;;;6181739;23;45254;-72
2022/12/12 07:46:08;;;;;;;7.72;5.03;;;15.10;40.20;;;;;;6180722;23;45263;-72
2022/12/12 07:48:36;;;;;;;9.27;5.20;;;15.20;40.20;;;;;;6182052;23;46251;-72
2022/12/12 07:51:03;;;;;;;7.88;5.10;;;15.20;40.00;;;;;;6181891;23;45332;-72
2022/12/12 07:53:30;;;;;;;8.85;5.07;;;15.10;40.00;;;;;;6182452;23;45314;-72
2022/12/12 07:55:57;;;;;;;7.10;4.45;;;15.10;40.00;;;;;;6179346;23;45207;-72
2022/12/12 07:58:24;;;;;;;8.63;5.00;;;15.10;39.70;;;;;;6181981;23;47297;-72
2022/12/12 08:00:52;;;;;;;7.82;4.82;;;15.10;39.70;;;;;;6181991;23;45708;-72
2022/12/12 08:03:19;;;;;;;8.13;4.60;;;15.10;39.70;;;;;;6181881;23;45429;-72
2022/12/12 08:05:46;;;;;;;8.18;4.50;;;15.10;39.70;;;;;;6182336;23;45348;-73
2022/12/12 08:08:12;;;;;;;9.02;5.35;;;15.10;39.60;;;;;;6180444;23;48275;-72
2022/12/12 08:10:40;;;;;;;8.30;4.82;;;15.10;39.70;;;;;;6182479;23;45196;-72
2022/12/12 08:13:07;;;;;;;7.47;4.60;;;15.10;39.60;;;;;;6182570;23;45272;-73
2022/12/12 08:15:34;;;;;;;7.00;4.00;;;15.10;39.50;;;;;;6182730;23;45382;-73
2022/12/12 08:18:02;;;;;;;6.47;4.05;;;15.10;39.60;;;;;;6183205;23;46559;-72
2022/12/12 08:20:29;;;;;;;7.68;4.22;;;15.10;39.80;;;;;;6183471;23;45227;-72
2022/12/12 08:22:56;;;;;;;7.00;4.05;;;15.10;39.60;;;;;;6183836;23;45340;-72
2022/12/12 08:25:23;;;;;;;7.38;4.07;;;15.10;39.70;;;;;;6184233;23;45217;-72
2022/12/12 08:27:50;;;;;;;6.15;3.80;;;15.10;39.60;;;;;;6182358;23;46548;-72
2022/12/12 08:30:16;;;;;;;7.43;4.03;;;15.10;39.60;;;;;;6183486;23;45848;-72
2022/12/12 08:32:43;;;;;;;6.78;4.00;;;15.10;39.50;;;;;;6183474;23;45212;-73
2022/12/12 08:35:12;;;;;;;6.43;3.95;;;15.10;39.50;;;;;;6183917;23;45340;-73
2022/12/12 08:37:39;;;;;;;6.97;4.07;;;15.10;39.30;;;;;;6182800;22;46199;-73
2022/12/12 08:40:07;;;;;;;6.13;3.70;;;15.20;39.30;;;;;;6183309;23;45914;-72
2022/12/12 08:42:33;;;;;;;7.13;3.78;;;15.20;39.50;;;;;;6184280;23;45632;-73
2022/12/12 08:45:00;;;;;;;5.05;3.50;;;15.10;39.20;;;;;;6183361;23;45489;-72
2022/12/12 08:47:28;;;;;;;5.22;3.42;;;15.20;39.30;;;;;;6182838;23;47464;-73
2022/12/12 08:49:55;;;;;;;6.07;3.80;;;15.20;39.20;;;;;;6183723;23;45911;-72
2022/12/12 08:52:23;;;;;;;6.43;3.60;;;15.20;39.00;;;;;;6183411;23;45308;-72
2022/12/12 08:54:50;;;;;;;6.35;3.50;;;15.20;39.10;;;;;;6182456;23;45386;-72
2022/12/12 08:57:16;;;;;;;5.82;3.38;;;15.20;39.00;;;;;;6182586;23;46457;-73
2022/12/12 08:59:43;;;;;;;6.47;3.53;;;15.10;39.00;;;;;;6183540;23;45269;-72
2022/12/12 09:02:12;;;;;;;6.25;3.47;;;15.10;38.90;;;;;;6183774;23;45361;-72
2022/12/12 09:04:39;;;;;;;6.15;3.40;;;15.20;39.10;;;;;;6183199;23;45364;-73
2022/12/12 09:07:06;;;;;;;41.10;7.30;;;15.10;38.80;;;;;;6182277;23;47543;-74
2022/12/12 09:09:34;;;;;;;14.98;4.13;;;15.20;41.10;;;;;;6184486;23;45341;-74
2022/12/12 09:12:01;;;;;;;9.85;3.83;;;15.20;39.60;;;;;;6184436;23;45355;-74
2022/12/12 09:14:28;;;;;;;7.57;3.60;;;15.20;39.50;;;;;;6184202;23;45373;-74
2022/12/12 09:16:55;;;;;;;5.90;3.05;;;15.10;39.20;;;;;;6182740;23;47143;-74
2022/12/12 09:19:21;;;;;;;9.27;3.80;;;15.10;39.40;;;;;;6183990;23;45218;-74
2022/12/12 09:21:48;;;;;;;5.85;3.53;;;15.10;39.40;;;;;;6183783;23;45333;-74
2022/12/12 09:24:15;;;;;;;6.68;3.50;;;15.10;39.20;;;;;;6184237;23;45574;-74
2022/12/12 09:26:43;;;;;;;8.23;3.75;;;15.20;39.30;;;;;;6185859;23;46312;-74
2022/12/12 09:29:11;;;;;;;5.97;3.45;;;15.20;39.30;;;;;;6183431;23;45340;-74
2022/12/12 09:31:38;;;;;;;6.85;3.28;;;15.20;39.20;;;;;;6184162;23;45329;-74
2022/12/12 09:34:05;;;;;;;5.22;2.97;;;15.20;39.30;;;;;;6184060;23;45349;-74
2022/12/12 09:36:32;;;;;;;5.20;3.17;;;15.20;39.20;;;;;;6183491;23;47928;-74
2022/12/12 09:38:59;;;;;;;5.43;3.45;;;15.20;39.20;;;;;;6184054;22;45192;-74
2022/12/12 09:41:29;;;;;;;6.45;3.38;;;15.20;39.20;;;;;;6183740;23;45352;-74
2022/12/12 09:44:01;;;;;;;5.68;3.95;;;15.20;39.20;;;;;;6184350;23;45262;-74
2022/12/12 09:46:36;;;;;;;5.70;3.40;;;15.20;39.20;;;;;;6182753;23;45457;-75
2022/12/12 09:49:11;;;;;;;5.22;3.47;;;15.20;39.20;;;;;;6184514;23;45174;-75
2022/12/12 09:51:39;;;;;;;7.05;3.63;;;15.20;39.20;;;;;;6184335;23;45285;-74
2022/12/12 09:54:06;;;;;;;6.40;3.63;;;15.20;39.20;;;;;;6182841;23;45436;-74
2022/12/12 09:56:40;;;;;;;5.78;3.40;;;15.20;39.40;;;;;;6183481;23;45322;-74
2022/12/12 09:59:14;;;;;;;5.55;3.25;;;15.20;39.30;;;;;;6182473;23;46052;-74
2022/12/12 10:01:58;;;;;;;5.90;3.28;;;15.20;39.40;;;;;;6184267;23;45448;-74
2022/12/12 10:04:33;;;;;;;5.63;3.20;;;15.20;39.70;;;;;;6183912;23;45391;-74
2022/12/12 10:07:06;;;;;;;5.38;3.58;;;15.20;42.60;;;;;;6182546;23;48557;-74
2022/12/12 10:09:53;;;;;;;6.43;3.42;;;15.30;41.70;;;;;;6184017;23;45365;-74
2022/12/12 10:12:21;;;;;;;7.10;3.45;;;15.30;41.10;;;;;;6183616;23;45411;-74
2022/12/12 10:14:54;;;;;;;5.78;3.85;;;15.20;40.60;;;;;;6183504;23;45482;-73
2022/12/12 10:17:26;;;;;;;6.10;3.67;;;15.30;40.40;;;;;;6182596;23;46552;-74
2022/12/12 10:19:57;;;;;;;6.18;3.17;;;15.30;40.30;;;;;;6183891;23;45253;-73
2022/12/12 10:22:34;;;;;;;6.18;3.65;;;15.30;40.30;;;;;;6184337;23;45216;-74
2022/12/12 10:25:08;;;;;;;7.88;3.97;;;15.30;40.20;;;;;;6183141;23;45218;-74
2022/12/12 10:27:35;;;;;;;11.23;3.55;;;15.30;40.00;;;;;;6182724;23;46332;-73
2022/12/12 10:30:15;;;;;;;7.25;3.53;;;15.30;39.80;;;;;;6182370;23;45201;-74
2022/12/12 10:32:55;;;;;;;7.28;3.53;;;15.30;39.70;;;;;;6183450;23;45268;-74
2022/12/12 10:35:29;;;;;;;7.80;3.92;;;15.30;39.80;;;;;;6182619;23;45177;-74
2022/12/12 10:38:13;;;;;;;6.32;3.67;;;15.30;39.80;;;;;;6182430;23;45454;-73
2022/12/12 10:40:51;;;;;;;6.75;3.67;;;15.30;39.70;;;;;;6183728;23;45234;-74
2022/12/12 10:43:22;;;;;;;6.70;3.33;;;15.30;39.80;;;;;;6183296;23;45345;-73
2022/12/12 10:46:12;;;;;;;7.75;3.92;;;15.30;39.70;;;;;;6183164;23;45257;-73
2022/12/12 10:48:40;;;;;;;6.93;4.00;;;15.30;39.70;;;;;;6182878;23;48240;-73
2022/12/12 10:51:10;;;;;;;7.18;3.97;;;15.20;39.60;;;;;;6183274;23;45362;-73
2022/12/12 10:53:39;;;;;;;8.15;4.25;;;15.20;39.70;;;;;;6183016;23;45329;-74
2022/12/12 10:56:10;;;;;;;5.45;3.30;;;15.20;39.60;;;;;;6181842;23;45497;-74
2022/12/12 10:58:39;;;;;;;8.13;3.90;;;15.20;39.60;;;;;;6183374;23;47234;-73
2022/12/12 11:01:20;;;;;;;8.23;4.15;;;15.20;39.60;;;;;;6183319;23;45352;-74
2022/12/12 11:03:50;;;;;;;7.32;3.80;;;15.20;39.60;;;;;;6184308;23;45289;-75
2022/12/12 11:06:21;;;;;;;6.60;3.40;;;15.20;39.50;;;;;;6181898;23;45517;-74
2022/12/12 11:08:55;;;;;;;7.20;3.67;;;15.30;39.60;;;;;;6183509;23;45209;-73
2022/12/12 11:11:24;;;;;;;9.13;3.97;;;15.30;39.60;;;;;;6183705;23;45237;-74
2022/12/12 11:13:53;;;;;;;6.85;3.55;;;15.30;39.50;;;;;;6182882;23;45340;-74
2022/12/12 11:16:23;;;;;;;9.13;4.00;;;15.40;39.50;;;;;;6182967;23;45327;-73
2022/12/12 11:19:03;;;;;;;5.75;3.47;;;15.40;39.50;;;;;;6181747;23;45468;-75
2022/12/12 11:21:33;;;;;;;8.68;4.07;;;15.40;39.40;;;;;;6185212;23;45149;-73
2022/12/12 11:24:03;;;;;;;6.43;3.75;;;15.30;39.40;;;;;;6183046;23;45249;-74
2022/12/12 11:26:30;;;;;;;7.05;3.85;;;15.40;39.60;;;;;;6183050;23;45448;-73
2022/12/12 11:29:00;;;;;;;5.00;3.28;;;15.30;39.40;;;;;;6182873;23;46409;-73
2022/12/12 11:31:31;;;;;;;7.55;4.03;;;15.30;39.50;;;;;;6182846;23;45333;-73
2022/12/12 11:34:00;;;;;;;8.52;4.00;;;15.40;39.60;;;;;;6183529;23;45425;-73
2022/12/12 11:36:32;;;;;;;7.47;4.13;;;15.30;39.40;;;;;;6182168;23;45410;-73
2022/12/12 11:39:01;;;;;;;4.97;3.20;;;15.30;39.30;;;;;;6182741;23;45467;-73
2022/12/12 11:41:28;;;;;;;7.22;3.75;;;15.30;39.30;;;;;;6183138;23;45347;-73
2022/12/12 11:44:00;;;;;;;8.00;3.95;;;15.30;39.60;;;;;;6182463;23;45373;-73
2022/12/12 11:46:30;;;;;;;7.68;3.90;;;15.30;39.60;;;;;;6182708;23;45275;-74
2022/12/12 11:48:59;;;;;;;7.60;3.80;;;15.30;39.60;;;;;;6182331;23;45523;-73
2022/12/12 11:51:35;;;;;;;6.35;3.47;;;15.20;39.50;;;;;;6182368;23;45437;-73
2022/12/12 11:54:05;;;;;;;6.13;3.35;;;15.20;39.50;;;;;;6182687;23;45285;-74
2022/12/12 11:56:40;;;;;;;8.05;3.30;;;15.20;39.40;;;;;;6181909;23;45298;-73
2022/12/12 11:59:28;;;;;;;8.30;3.42;;;15.30;39.30;;;;;;6182893;23;48072;-73
2022/12/12 12:02:05;;;;;;;7.90;3.72;;;15.30;39.20;;;;;;6182498;23;45633;-73
2022/12/12 12:04:47;;;;;;;6.60;3.70;;;15.30;39.20;;;;;;6183351;23;45286;-73
2022/12/12 12:07:30;;;;;;;6.40;2.95;;;15.30;39.10;;;;;;6181065;23;45240;-74
2022/12/12 12:10:03;;;;;;;5.18;3.05;;;15.40;41.30;;;;;;6183468;23;46406;-74
2022/12/12 12:12:44;;;;;;;6.60;3.00;;;15.40;41.80;;;;;;6183492;23;45208;-73
2022/12/12 12:15:27;;;;;;;5.07;2.97;;;15.40;41.00;;;;;;6182322;23;45285;-74
2022/12/12 12:18:25;;;;;;;6.32;3.28;;;15.40;40.60;;;;;;6183044;23;45227;-73
2022/12/12 12:21:12;;;;;;;8.18;3.17;;;15.30;40.30;;;;;;6172140;23;45463;-73
2022/12/12 12:23:51;;;;;;;5.70;3.00;;;15.30;40.00;;;;;;6182513;23;45348;-73
2022/12/12 12:26:27;;;;;;;8.02;3.53;;;15.30;40.00;;;;;;6181753;23;45279;-73
2022/12/12 12:29:12;;;;;;;8.02;3.72;;;15.30;39.80;;;;;;6182917;23;45450;-73
2022/12/12 12:31:48;;;;;;;4.97;2.90;;;15.30;39.90;;;;;;6180878;23;47126;-73
2022/12/12 12:34:23;;;;;;;5.70;2.78;;;15.30;39.70;;;;;;6181231;23;45586;-73
2022/12/12 12:37:06;;;;;;;5.75;3.03;;;15.20;39.50;;;;;;6178995;23;45212;-73
2022/12/12 12:39:54;;;;;;;5.25;3.30;;;15.20;39.40;;;;;;6181885;23;45165;-73
2022/12/12 12:42:36;;;;;;;5.07;2.75;;;15.20;39.40;;;;;;6182103;23;47985;-73
2022/12/12 12:45:13;;;;;;;6.47;3.15;;;15.30;39.40;;;;;;6181649;23;45231;-73
2022/12/12 12:47:47;;;;;;;6.43;2.90;;;15.30;39.30;;;;;;6182294;23;45365;-73
2022/12/12 12:50:19;;;;;;;4.95;2.78;;;15.30;39.10;;;;;;6182042;23;45340;-73
2022/12/12 12:52:51;;;;;;;4.78;2.60;;;15.30;38.80;;;;;;6181385;23;47938;-74
2022/12/12 12:55:22;;;;;;;6.28;2.65;;;15.30;38.80;;;;;;6181013;23;45456;-73
2022/12/12 12:57:51;;;;;;;4.95;2.80;;;15.30;38.70;;;;;;6180657;23;45237;-73
2022/12/12 13:00:20;;;;;;;7.53;2.67;;;15.30;38.60;;;;;;6182096;23;45270;-73
2022/12/12 13:02:53;;;;;;;5.80;2.60;;;15.30;38.60;;;;;;6180666;23;47309;-73
2022/12/12 13:05:26;;;;;;;6.15;3.05;;;15.30;38.60;;;;;;6183791;23;45265;-73
2022/12/12 13:08:00;;;;;;;6.10;2.83;;;15.30;38.50;;;;;;6182048;23;45248;-74
2022/12/12 13:10:28;;;;;;;4.82;2.97;;;15.30;38.50;;;;;;6183897;23;45428;-74
2022/12/12 13:12:59;;;;;;;4.05;2.60;;;15.30;38.50;;;;;;6184078;23;46392;-73
2022/12/12 13:15:30;;;;;;;6.68;3.20;;;15.30;38.60;;;;;;6185781;23;45442;-73
2022/12/12 13:18:02;;;;;;;5.25;2.60;;;15.30;38.50;;;;;;6183814;23;45305;-73
2022/12/12 13:20:34;;;;;;;4.93;2.67;;;15.30;38.50;;;;;;6183105;23;45413;-73